Metar z połowy godziny Komunikat METAR ze strony awiacja.imgw.pl Metar G30 EPCE METAR EPCE 180830Z VRB02KT 4600 BR BKN003 OVC010 04/04 Q1030 RMK 043 098 8/6 =